sensor_id;sensor_type;location;lat;lon;timestamp;pressure;altitude;pressure_sealevel;temperature;humidity
60489;BME280;46331;49.252;8.904;2023-04-08T00:00:36;100087.00;;;6.67;87.79
60489;BME280;46331;49.252;8.904;2023-04-08T00:01:17;100087.44;;;6.70;87.88
60489;BME280;46331;49.252;8.904;2023-04-08T00:01:57;100095.34;;;6.70;88.01
60489;BME280;46331;49.252;8.904;2023-04-08T00:02:38;100091.69;;;6.71;88.37
60489;BME280;46331;49.252;8.904;2023-04-08T00:03:19;100088.84;;;6.73;87.54
60489;BME280;46331;49.252;8.904;2023-04-08T00:04:00;100094.31;;;6.71;87.52
60489;BME280;46331;49.252;8.904;2023-04-08T00:04:41;100094.13;;;6.79;88.10
60489;BME280;46331;49.252;8.904;2023-04-08T00:05:21;100095.94;;;6.79;87.25
60489;BME280;46331;49.252;8.904;2023-04-08T00:06:02;100094.53;;;6.76;87.71
60489;BME280;46331;49.252;8.904;2023-04-08T00:06:43;100098.78;;;6.77;88.20
60489;BME280;46331;49.252;8.904;2023-04-08T00:07:24;100099.00;;;6.83;88.16
60489;BME280;46331;49.252;8.904;2023-04-08T00:08:05;100094.13;;;6.86;88.32
60489;BME280;46331;49.252;8.904;2023-04-08T00:08:45;100098.19;;;6.89;88.16
60489;BME280;46331;49.252;8.904;2023-04-08T00:09:26;100094.94;;;6.93;87.89
60489;BME280;46331;49.252;8.904;2023-04-08T00:10:07;100090.06;;;6.97;88.44
60489;BME280;46331;49.252;8.904;2023-04-08T00:10:48;100096.34;;;7.03;88.02
60489;BME280;46331;49.252;8.904;2023-04-08T00:11:28;100092.69;;;7.04;87.01
60489;BME280;46331;49.252;8.904;2023-04-08T00:12:09;100090.47;;;7.07;87.01
60489;BME280;46331;49.252;8.904;2023-04-08T00:12:49;100093.72;;;7.03;87.45
60489;BME280;46331;49.252;8.904;2023-04-08T00:13:30;100093.28;;;6.99;87.66
60489;BME280;46331;49.252;8.904;2023-04-08T00:14:11;100090.88;;;7.04;87.28
60489;BME280;46331;49.252;8.904;2023-04-08T00:14:51;100093.91;;;7.08;87.36
60489;BME280;46331;49.252;8.904;2023-04-08T00:15:32;100090.44;;;7.14;87.22
60489;BME280;46331;49.252;8.904;2023-04-08T00:16:12;100082.75;;;7.12;87.35
60489;BME280;46331;49.252;8.904;2023-04-08T00:16:53;100097.34;;;7.15;87.00
60489;BME280;46331;49.252;8.904;2023-04-08T00:17:34;100090.84;;;7.18;87.32
60489;BME280;46331;49.252;8.904;2023-04-08T00:18:15;100089.63;;;7.20;87.81
60489;BME280;46331;49.252;8.904;2023-04-08T00:18:56;100096.94;;;7.25;87.54
60489;BME280;46331;49.252;8.904;2023-04-08T00:19:36;100101.19;;;7.26;87.82
60489;BME280;46331;49.252;8.904;2023-04-08T00:20:17;100094.47;;;7.30;87.88
60489;BME280;46331;49.252;8.904;2023-04-08T00:20:57;100096.09;;;7.31;87.54
60489;BME280;46331;49.252;8.904;2023-04-08T00:21:38;100096.50;;;7.34;87.65
60489;BME280;46331;49.252;8.904;2023-04-08T00:22:18;100092.84;;;7.36;87.71
60489;BME280;46331;49.252;8.904;2023-04-08T00:22:59;100100.94;;;7.41;88.56
60489;BME280;46331;49.252;8.904;2023-04-08T00:23:40;100098.94;;;7.43;87.82
60489;BME280;46331;49.252;8.904;2023-04-08T00:24:20;100095.66;;;7.41;88.03
60489;BME280;46331;49.252;8.904;2023-04-08T00:25:01;100093.44;;;7.44;88.47
60489;BME280;46331;49.252;8.904;2023-04-08T00:25:42;100094.25;;;7.45;88.21
60489;BME280;46331;49.252;8.904;2023-04-08T00:26:22;100094.03;;;7.46;87.71
60489;BME280;46331;49.252;8.904;2023-04-08T00:27:03;100094.63;;;7.48;88.00
60489;BME280;46331;49.252;8.904;2023-04-08T00:27:43;100096.44;;;7.55;88.04
60489;BME280;46331;49.252;8.904;2023-04-08T00:28:24;100092.59;;;7.57;88.55
60489;BME280;46331;49.252;8.904;2023-04-08T00:29:04;100093.19;;;7.59;88.50
60489;BME280;46331;49.252;8.904;2023-04-08T00:29:46;100096.03;;;7.58;88.29
60489;BME280;46331;49.252;8.904;2023-04-08T00:30:26;100095.81;;;7.59;88.52
60489;BME280;46331;49.252;8.904;2023-04-08T00:31:08;100095.19;;;7.64;88.35
60489;BME280;46331;49.252;8.904;2023-04-08T00:31:48;100091.97;;;7.62;87.93
60489;BME280;46331;49.252;8.904;2023-04-08T00:32:29;100093.16;;;7.66;87.88
60489;BME280;46331;49.252;8.904;2023-04-08T00:33:09;100105.94;;;7.69;87.92
60489;BME280;46331;49.252;8.904;2023-04-08T00:33:50;100089.91;;;7.70;88.11
60489;BME280;46331;49.252;8.904;2023-04-08T00:34:30;100094.34;;;7.70;87.28
60489;BME280;46331;49.252;8.904;2023-04-08T00:35:11;100093.13;;;7.73;87.33
60489;BME280;46331;49.252;8.904;2023-04-08T00:35:52;100096.16;;;7.76;87.75
60489;BME280;46331;49.252;8.904;2023-04-08T00:36:32;100090.28;;;7.74;88.22
60489;BME280;46331;49.252;8.904;2023-04-08T00:37:13;100092.94;;;7.74;87.99
60489;BME280;46331;49.252;8.904;2023-04-08T00:37:54;100090.66;;;7.78;88.18
60489;BME280;46331;49.252;8.904;2023-04-08T00:38:35;100093.72;;;7.81;88.21
60489;BME280;46331;49.252;8.904;2023-04-08T00:39:15;100090.47;;;7.79;88.22
60489;BME280;46331;49.252;8.904;2023-04-08T00:39:56;100093.72;;;7.81;87.73
60489;BME280;46331;49.252;8.904;2023-04-08T00:40:36;100088.81;;;7.85;87.74
60489;BME280;46331;49.252;8.904;2023-04-08T00:41:17;100082.31;;;7.87;88.35
60489;BME280;46331;49.252;8.904;2023-04-08T00:41:58;100089.03;;;7.90;87.91
60489;BME280;46331;49.252;8.904;2023-04-08T00:42:38;100093.06;;;7.93;88.10
60489;BME280;46331;49.252;8.904;2023-04-08T00:43:19;100087.56;;;7.94;88.20
60489;BME280;46331;49.252;8.904;2023-04-08T00:44:00;100090.00;;;7.96;87.70
60489;BME280;46331;49.252;8.904;2023-04-08T00:44:41;100081.06;;;7.97;87.61
60489;BME280;46331;49.252;8.904;2023-04-08T00:45:22;100086.94;;;7.99;87.65
60489;BME280;46331;49.252;8.904;2023-04-08T00:46:03;100088.97;;;7.97;87.17
60489;BME280;46331;49.252;8.904;2023-04-08T00:46:44;100086.34;;;7.97;87.83
60489;BME280;46331;49.252;8.904;2023-04-08T00:47:25;100095.28;;;7.96;87.76
60489;BME280;46331;49.252;8.904;2023-04-08T00:48:06;100090.00;;;7.96;87.65
60489;BME280;46331;49.252;8.904;2023-04-08T00:48:46;100085.53;;;7.96;87.69
60489;BME280;46331;49.252;8.904;2023-04-08T00:49:27;100094.84;;;7.99;88.11
60489;BME280;46331;49.252;8.904;2023-04-08T00:50:08;100089.56;;;7.99;87.49
60489;BME280;46331;49.252;8.904;2023-04-08T00:50:50;100097.06;;;8.02;87.95
60489;BME280;46331;49.252;8.904;2023-04-08T00:51:30;100091.59;;;8.03;88.06
60489;BME280;46331;49.252;8.904;2023-04-08T00:52:12;100093.00;;;8.06;87.49
60489;BME280;46331;49.252;8.904;2023-04-08T00:52:53;100089.94;;;8.09;87.70
60489;BME280;46331;49.252;8.904;2023-04-08T00:53:33;100094.00;;;8.12;87.00
60489;BME280;46331;49.252;8.904;2023-04-08T00:54:14;100095.59;;;8.13;86.42
60489;BME280;46331;49.252;8.904;2023-04-08T00:54:55;100092.16;;;8.12;86.08
60489;BME280;46331;49.252;8.904;2023-04-08T00:55:35;100096.00;;;8.16;86.09
60489;BME280;46331;49.252;8.904;2023-04-08T00:56:16;100097.81;;;8.16;85.89
60489;BME280;46331;49.252;8.904;2023-04-08T00:56:57;100104.50;;;8.18;86.04
60489;BME280;46331;49.252;8.904;2023-04-08T00:57:40;100091.31;;;8.18;85.81
60489;BME280;46331;49.252;8.904;2023-04-08T00:58:21;100101.66;;;8.20;85.28
60489;BME280;46331;49.252;8.904;2023-04-08T00:59:03;100094.38;;;8.15;85.16
60489;BME280;46331;49.252;8.904;2023-04-08T00:59:44;100101.88;;;8.18;85.10
60489;BME280;46331;49.252;8.904;2023-04-08T01:00:25;100102.88;;;8.17;85.02
60489;BME280;46331;49.252;8.904;2023-04-08T01:01:23;100105.09;;;8.20;84.70
60489;BME280;46331;49.252;8.904;2023-04-08T01:02:13;100103.50;;;8.19;84.76
60489;BME280;46331;49.252;8.904;2023-04-08T01:03:10;100099.81;;;8.20;85.03
60489;BME280;46331;49.252;8.904;2023-04-08T01:06:12;100100.66;;;8.21;84.36
60489;BME280;46331;49.252;8.904;2023-04-08T01:07:50;100098.59;;;8.23;84.89
60489;BME280;46331;49.252;8.904;2023-04-08T01:08:34;100100.22;;;8.24;84.50
60489;BME280;46331;49.252;8.904;2023-04-08T01:09:22;100096.75;;;8.23;84.55
60489;BME280;46331;49.252;8.904;2023-04-08T01:10:11;100090.66;;;8.23;84.67
60489;BME280;46331;49.252;8.904;2023-04-08T01:10:53;100102.25;;;8.22;84.38
60489;BME280;46331;49.252;8.904;2023-04-08T01:11:42;100100.66;;;8.21;84.68
60489;BME280;46331;49.252;8.904;2023-04-08T01:12:27;100098.22;;;8.19;84.27
60489;BME280;46331;49.252;8.904;2023-04-08T01:13:11;100097.38;;;8.19;84.64
60489;BME280;46331;49.252;8.904;2023-04-08T01:13:54;100096.38;;;8.20;84.56
60489;BME280;46331;49.252;8.904;2023-04-08T01:14:41;100102.47;;;8.20;84.68
60489;BME280;46331;49.252;8.904;2023-04-08T01:15:25;100102.69;;;8.19;84.69
60489;BME280;46331;49.252;8.904;2023-04-08T01:16:09;100101.66;;;8.20;84.95
60489;BME280;46331;49.252;8.904;2023-04-08T01:16:50;100093.94;;;8.18;84.83
60489;BME280;46331;49.252;8.904;2023-04-08T01:17:32;100099.44;;;8.17;85.27
60489;BME280;46331;49.252;8.904;2023-04-08T01:18:14;100097.59;;;8.17;84.86
60489;BME280;46331;49.252;8.904;2023-04-08T01:18:57;100098.44;;;8.18;85.33
60489;BME280;46331;49.252;8.904;2023-04-08T01:19:38;100092.31;;;8.17;85.38
60489;BME280;46331;49.252;8.904;2023-04-08T01:20:23;100090.28;;;8.19;85.04
60489;BME280;46331;49.252;8.904;2023-04-08T01:21:05;100100.25;;;8.17;85.25
60489;BME280;46331;49.252;8.904;2023-04-08T01:21:47;100094.38;;;8.15;85.83
60489;BME280;46331;49.252;8.904;2023-04-08T01:23:43;100094.38;;;8.15;86.29
60489;BME280;46331;49.252;8.904;2023-04-08T01:24:29;100091.94;;;8.14;86.03
60489;BME280;46331;49.252;8.904;2023-04-08T01:26:12;100095.38;;;8.14;85.76
60489;BME280;46331;49.252;8.904;2023-04-08T01:27:01;100092.16;;;8.12;85.65
60489;BME280;46331;49.252;8.904;2023-04-08T01:27:43;100090.31;;;8.13;85.89
60489;BME280;46331;49.252;8.904;2023-04-08T01:28:27;100092.94;;;8.13;85.70
60489;BME280;46331;49.252;8.904;2023-04-08T01:29:09;100092.38;;;8.11;85.88
60489;BME280;46331;49.252;8.904;2023-04-08T01:29:52;100087.88;;;8.11;85.95
60489;BME280;46331;49.252;8.904;2023-04-08T01:30:34;100089.94;;;8.09;85.77
60489;BME280;46331;49.252;8.904;2023-04-08T01:31:15;100087.50;;;8.08;85.75
60489;BME280;46331;49.252;8.904;2023-04-08T01:31:57;100083.44;;;8.05;86.13
60489;BME280;46331;49.252;8.904;2023-04-08T01:32:42;100087.13;;;8.04;85.94
60489;BME280;46331;49.252;8.904;2023-04-08T01:33:24;100088.34;;;8.01;85.95
60489;BME280;46331;49.252;8.904;2023-04-08T01:34:09;100081.06;;;7.97;86.76
60489;BME280;46331;49.252;8.904;2023-04-08T01:34:51;100080.47;;;7.95;86.79
60489;BME280;46331;49.252;8.904;2023-04-08T01:35:32;100081.28;;;7.95;86.89
60489;BME280;46331;49.252;8.904;2023-04-08T01:36:13;100093.06;;;7.93;87.31
60489;BME280;46331;49.252;8.904;2023-04-08T01:36:55;100087.41;;;7.89;88.08
60489;BME280;46331;49.252;8.904;2023-04-08T01:37:37;100089.03;;;7.90;87.63
60489;BME280;46331;49.252;8.904;2023-04-08T01:38:19;100093.25;;;7.91;87.40
60489;BME280;46331;49.252;8.904;2023-04-08T01:39:03;100087.41;;;7.89;87.79
60489;BME280;46331;49.252;8.904;2023-04-08T01:39:46;100084.97;;;7.87;87.80
60489;BME280;46331;49.252;8.904;2023-04-08T01:40:28;100083.34;;;7.86;88.19
60489;BME280;46331;49.252;8.904;2023-04-08T01:41:10;100086.97;;;7.85;87.90
60489;BME280;46331;49.252;8.904;2023-04-08T01:41:52;100086.38;;;7.83;88.48
60489;BME280;46331;49.252;8.904;2023-04-08T01:42:34;100088.03;;;7.84;88.35
60489;BME280;46331;49.252;8.904;2023-04-08T01:43:16;100087.81;;;7.86;88.52
60489;BME280;46331;49.252;8.904;2023-04-08T01:43:58;100090.03;;;7.82;88.91
60489;BME280;46331;49.252;8.904;2023-04-08T01:44:41;100087.19;;;7.84;89.03
60489;BME280;46331;49.252;8.904;2023-04-08T01:45:22;100091.47;;;7.85;88.64
60489;BME280;46331;49.252;8.904;2023-04-08T01:46:04;100082.75;;;7.84;88.21
60489;BME280;46331;49.252;8.904;2023-04-08T01:46:46;100087.41;;;7.82;88.64
60489;BME280;46331;49.252;8.904;2023-04-08T01:47:29;100092.91;;;7.81;88.26
60489;BME280;46331;49.252;8.904;2023-04-08T01:48:12;100085.81;;;7.81;88.31
60489;BME280;46331;49.252;8.904;2023-04-08T01:48:54;100080.94;;;7.78;88.26
60489;BME280;46331;49.252;8.904;2023-04-08T01:49:35;100087.81;;;7.79;88.69
60489;BME280;46331;49.252;8.904;2023-04-08T01:50:16;100086.81;;;7.80;88.52
60489;BME280;46331;49.252;8.904;2023-04-08T01:50:59;100087.81;;;7.79;88.47
60489;BME280;46331;49.252;8.904;2023-04-08T01:51:40;100086.22;;;7.78;88.11
60489;BME280;46331;49.252;8.904;2023-04-08T01:52:24;100084.38;;;7.79;88.33
60489;BME280;46331;49.252;8.904;2023-04-08T01:53:08;100088.88;;;7.78;87.88
60489;BME280;46331;49.252;8.904;2023-04-08T01:53:49;100085.59;;;7.76;88.49
60489;BME280;46331;49.252;8.904;2023-04-08T01:54:30;100086.63;;;7.75;88.29
60489;BME280;46331;49.252;8.904;2023-04-08T01:55:10;100088.25;;;7.76;88.15
60489;BME280;46331;49.252;8.904;2023-04-08T01:55:56;100088.66;;;7.73;88.83
60489;BME280;46331;49.252;8.904;2023-04-08T01:56:40;100088.25;;;7.76;88.17
60489;BME280;46331;49.252;8.904;2023-04-08T01:57:23;100084.59;;;7.77;88.70
60489;BME280;46331;49.252;8.904;2023-04-08T01:58:08;100089.88;;;7.77;88.48
60489;BME280;46331;49.252;8.904;2023-04-08T01:58:52;100093.53;;;7.76;87.92
60489;BME280;46331;49.252;8.904;2023-04-08T01:59:36;100086.63;;;7.75;88.28
60489;BME280;46331;49.252;8.904;2023-04-08T02:00:20;100090.28;;;7.74;88.38
60489;BME280;46331;49.252;8.904;2023-04-08T02:01:03;100090.28;;;7.74;88.40
60489;BME280;46331;49.252;8.904;2023-04-08T02:01:46;100085.00;;;7.74;88.27
60489;BME280;46331;49.252;8.904;2023-04-08T02:02:27;100089.50;;;7.74;88.45
60489;BME280;46331;49.252;8.904;2023-04-08T02:03:11;100092.94;;;7.74;88.08
60489;BME280;46331;49.252;8.904;2023-04-08T02:03:54;100095.38;;;7.76;88.53
60489;BME280;46331;49.252;8.904;2023-04-08T02:04:37;100090.88;;;7.76;88.46
60489;BME280;46331;49.252;8.904;2023-04-08T02:05:18;100094.34;;;7.77;88.16
60489;BME280;46331;49.252;8.904;2023-04-08T02:05:58;100089.06;;;7.77;88.63
60489;BME280;46331;49.252;8.904;2023-04-08T02:06:39;100095.56;;;7.74;88.07
60489;BME280;46331;49.252;8.904;2023-04-08T02:07:20;100092.34;;;7.72;88.22
60489;BME280;46331;49.252;8.904;2023-04-08T02:08:01;100089.69;;;7.72;87.88
60489;BME280;46331;49.252;8.904;2023-04-08T02:08:42;100088.28;;;7.69;88.50
60489;BME280;46331;49.252;8.904;2023-04-08T02:09:23;100095.41;;;7.69;88.47
60489;BME280;46331;49.252;8.904;2023-04-08T02:10:05;100089.50;;;7.67;88.11
60489;BME280;46331;49.252;8.904;2023-04-08T02:10:45;100096.41;;;7.68;88.53
60489;BME280;46331;49.252;8.904;2023-04-08T02:11:26;100099.03;;;7.68;88.83
60489;BME280;46331;49.252;8.904;2023-04-08T02:12:08;100100.06;;;7.67;88.37
60489;BME280;46331;49.252;8.904;2023-04-08T02:12:49;100093.56;;;7.69;88.85
60489;BME280;46331;49.252;8.904;2023-04-08T02:13:30;100098.03;;;7.69;88.91
60489;BME280;46331;49.252;8.904;2023-04-08T02:14:11;100104.91;;;7.70;88.98
60489;BME280;46331;49.252;8.904;2023-04-08T02:14:53;100101.91;;;7.66;88.53
60489;BME280;46331;49.252;8.904;2023-04-08T02:15:37;100097.63;;;7.65;88.02
60489;BME280;46331;49.252;8.904;2023-04-08T02:16:32;100101.31;;;7.64;87.75
60489;BME280;46331;49.252;8.904;2023-04-08T02:17:22;100097.25;;;7.62;88.23
60489;BME280;46331;49.252;8.904;2023-04-08T02:18:15;100098.44;;;7.59;88.19
60489;BME280;46331;49.252;8.904;2023-04-08T02:19:08;100096.66;;;7.60;88.14
60489;BME280;46331;49.252;8.904;2023-04-08T02:20:49;100096.66;;;7.60;88.19
60489;BME280;46331;49.252;8.904;2023-04-08T02:22:05;100097.25;;;7.62;88.17
60489;BME280;46331;49.252;8.904;2023-04-08T02:23:02;100090.31;;;7.61;88.31
60489;BME280;46331;49.252;8.904;2023-04-08T02:23:47;100098.66;;;7.64;88.17
60489;BME280;46331;49.252;8.904;2023-04-08T02:24:31;100093.16;;;7.66;87.85
60489;BME280;46331;49.252;8.904;2023-04-08T02:25:15;100096.81;;;7.65;87.49
60489;BME280;46331;49.252;8.904;2023-04-08T02:25:55;100096.63;;;7.66;87.71
60489;BME280;46331;49.252;8.904;2023-04-08T02:26:42;100104.91;;;7.70;87.71
60489;BME280;46331;49.252;8.904;2023-04-08T02:27:24;100097.00;;;7.70;87.66
60489;BME280;46331;49.252;8.904;2023-04-08T02:28:09;100101.06;;;7.73;87.76
60489;BME280;46331;49.252;8.904;2023-04-08T02:28:51;100101.06;;;7.73;87.09
60489;BME280;46331;49.252;8.904;2023-04-08T02:29:38;100096.16;;;7.76;87.52
60489;BME280;46331;49.252;8.904;2023-04-08T02:30:20;100093.31;;;7.78;87.73
60489;BME280;46331;49.252;8.904;2023-04-08T02:31:02;100103.66;;;7.79;87.64
60489;BME280;46331;49.252;8.904;2023-04-08T02:31:47;100104.28;;;7.81;87.49
60489;BME280;46331;49.252;8.904;2023-04-08T02:32:30;100101.66;;;7.81;86.74
60489;BME280;46331;49.252;8.904;2023-04-08T02:33:12;100096.94;;;7.83;86.52
60489;BME280;46331;49.252;8.904;2023-04-08T02:33:54;100106.28;;;7.86;86.86
60489;BME280;46331;49.252;8.904;2023-04-08T02:34:36;100103.66;;;7.86;86.42
60489;BME280;46331;49.252;8.904;2023-04-08T02:35:18;100106.88;;;7.88;86.57
60489;BME280;46331;49.252;8.904;2023-04-08T02:36:00;100099.97;;;7.87;86.19
60489;BME280;46331;49.252;8.904;2023-04-08T02:36:42;100099.75;;;7.88;86.51
60489;BME280;46331;49.252;8.904;2023-04-08T02:37:27;100099.59;;;7.90;86.82
60489;BME280;46331;49.252;8.904;2023-04-08T02:38:08;100098.75;;;7.90;86.92
60489;BME280;46331;49.252;8.904;2023-04-08T02:38:50;100102.22;;;7.90;87.12
60489;BME280;46331;49.252;8.904;2023-04-08T02:39:31;100101.19;;;7.91;86.97
60489;BME280;46331;49.252;8.904;2023-04-08T02:40:30;100100.78;;;7.94;87.43
60489;BME280;46331;49.252;8.904;2023-04-08T02:41:11;100098.34;;;7.93;86.61
60489;BME280;46331;49.252;8.904;2023-04-08T02:41:51;100095.50;;;7.94;87.10
60489;BME280;46331;49.252;8.904;2023-04-08T02:42:35;100094.31;;;7.90;86.74
60489;BME280;46331;49.252;8.904;2023-04-08T02:43:15;100094.31;;;7.90;86.81
60489;BME280;46331;49.252;8.904;2023-04-08T02:43:56;100101.19;;;7.91;87.05
60489;BME280;46331;49.252;8.904;2023-04-08T02:44:37;100097.97;;;7.89;87.11
60489;BME280;46331;49.252;8.904;2023-04-08T02:45:18;100093.91;;;7.86;87.18
60489;BME280;46331;49.252;8.904;2023-04-08T02:45:59;100090.66;;;7.84;87.03
60489;BME280;46331;49.252;8.904;2023-04-08T02:46:42;100092.69;;;7.82;87.43
60489;BME280;46331;49.252;8.904;2023-04-08T02:47:23;100094.72;;;7.80;87.76
60489;BME280;46331;49.252;8.904;2023-04-08T02:48:05;100091.91;;;7.75;88.02
60489;BME280;46331;49.252;8.904;2023-04-08T02:48:46;100103.31;;;7.69;87.88
60489;BME280;46331;49.252;8.904;2023-04-08T02:49:27;100096.81;;;7.65;88.36
60489;BME280;46331;49.252;8.904;2023-04-08T02:50:08;100092.97;;;7.61;88.59
60489;BME280;46331;49.252;8.904;2023-04-08T02:50:48;100097.28;;;7.55;88.66
60489;BME280;46331;49.252;8.904;2023-04-08T02:51:29;100102.13;;;7.51;88.35
60489;BME280;46331;49.252;8.904;2023-04-08T02:52:09;100090.38;;;7.47;88.80
60489;BME280;46331;49.252;8.904;2023-04-08T02:52:50;100104.00;;;7.44;89.34
60489;BME280;46331;49.252;8.904;2023-04-08T02:53:30;100096.91;;;7.38;89.59
60489;BME280;46331;49.252;8.904;2023-04-08T02:54:11;100105.81;;;7.37;89.77
60489;BME280;46331;49.252;8.904;2023-04-08T02:54:51;100095.09;;;7.32;89.52
60489;BME280;46331;49.252;8.904;2023-04-08T02:55:32;100099.53;;;7.31;90.03
60489;BME280;46331;49.252;8.904;2023-04-08T02:56:12;100100.38;;;7.25;90.42
60489;BME280;46331;49.252;8.904;2023-04-08T02:56:53;100101.81;;;7.21;90.16
60489;BME280;46331;49.252;8.904;2023-04-08T02:57:33;100098.75;;;7.18;90.78
60489;BME280;46331;49.252;8.904;2023-04-08T02:58:14;100094.72;;;7.15;90.99
60489;BME280;46331;49.252;8.904;2023-04-08T02:58:55;100095.34;;;7.10;91.06
60489;BME280;46331;49.252;8.904;2023-04-08T02:59:35;100099.97;;;7.08;90.70
60489;BME280;46331;49.252;8.904;2023-04-08T03:00:17;100099.59;;;7.05;91.44
60489;BME280;46331;49.252;8.904;2023-04-08T03:00:57;100095.72;;;7.01;91.59
60489;BME280;46331;49.252;8.904;2023-04-08T03:01:38;100101.81;;;6.94;91.69
60489;BME280;46331;49.252;8.904;2023-04-08T03:02:18;100093.50;;;6.91;91.58
60489;BME280;46331;49.252;8.904;2023-04-08T03:02:59;100103.47;;;6.89;91.54
60489;BME280;46331;49.252;8.904;2023-04-08T03:03:40;100100.19;;;6.87;92.49
60489;BME280;46331;49.252;8.904;2023-04-08T03:04:20;100104.88;;;6.85;91.89
60489;BME280;46331;49.252;8.904;2023-04-08T03:05:01;100099.00;;;6.83;91.91
60489;BME280;46331;49.252;8.904;2023-04-08T03:05:42;100102.03;;;6.79;92.64
60489;BME280;46331;49.252;8.904;2023-04-08T03:06:22;100106.88;;;6.76;92.38
60489;BME280;46331;49.252;8.904;2023-04-08T03:07:03;100097.78;;;6.72;92.69
60489;BME280;46331;49.252;8.904;2023-04-08T03:07:43;100099.19;;;6.74;92.74
60489;BME280;46331;49.252;8.904;2023-04-08T03:08:24;100105.50;;;6.73;92.77
60489;BME280;46331;49.252;8.904;2023-04-08T03:09:06;100105.50;;;6.73;93.14
60489;BME280;46331;49.252;8.904;2023-04-08T03:09:46;100102.03;;;6.73;93.16
60489;BME280;46331;49.252;8.904;2023-04-08T03:10:27;100097.97;;;6.70;92.64
60489;BME280;46331;49.252;8.904;2023-04-08T03:11:07;100101.22;;;6.72;93.66
60489;BME280;46331;49.252;8.904;2023-04-08T03:11:48;100102.22;;;6.71;93.19
60489;BME280;46331;49.252;8.904;2023-04-08T03:12:34;100101.41;;;6.71;92.43
60489;BME280;46331;49.252;8.904;2023-04-08T03:13:15;100092.72;;;6.70;93.36
60489;BME280;46331;49.252;8.904;2023-04-08T03:13:56;100101.03;;;6.67;93.66
60489;BME280;46331;49.252;8.904;2023-04-08T03:14:37;100111.56;;;6.67;93.41
60489;BME280;46331;49.252;8.904;2023-04-08T03:15:17;100100.41;;;6.65;93.49
60489;BME280;46331;49.252;8.904;2023-04-08T03:15:58;100103.22;;;6.63;93.79
60489;BME280;46331;49.252;8.904;2023-04-08T03:16:38;100099.41;;;6.59;93.95
60489;BME280;46331;49.252;8.904;2023-04-08T03:17:19;100102.22;;;6.58;93.65
60489;BME280;46331;49.252;8.904;2023-04-08T03:18:02;100104.25;;;6.56;93.55
60489;BME280;46331;49.252;8.904;2023-04-08T03:18:42;100101.00;;;6.54;94.32
60489;BME280;46331;49.252;8.904;2023-04-08T03:19:23;100092.50;;;6.52;93.84
60489;BME280;46331;49.252;8.904;2023-04-08T03:20:04;100105.03;;;6.50;94.74
60489;BME280;46331;49.252;8.904;2023-04-08T03:20:45;100103.25;;;6.50;94.84
60489;BME280;46331;49.252;8.904;2023-04-08T03:21:26;100101.19;;;6.46;94.50
60489;BME280;46331;49.252;8.904;2023-04-08T03:22:06;100104.25;;;6.42;94.59
60489;BME280;46331;49.252;8.904;2023-04-08T03:22:49;100107.88;;;6.41;95.41
60489;BME280;46331;49.252;8.904;2023-04-08T03:23:29;100100.97;;;6.40;94.88
60489;BME280;46331;49.252;8.904;2023-04-08T03:24:10;100102.00;;;6.39;94.82
60489;BME280;46331;49.252;8.904;2023-04-08T03:24:51;100101.38;;;6.37;95.03
60489;BME280;46331;49.252;8.904;2023-04-08T03:25:31;100105.03;;;6.36;94.86
60489;BME280;46331;49.252;8.904;2023-04-08T03:26:12;100095.69;;;6.34;95.35
60489;BME280;46331;49.252;8.904;2023-04-08T03:26:52;100106.44;;;6.32;96.04
60489;BME280;46331;49.252;8.904;2023-04-08T03:27:33;100104.81;;;6.31;95.98
60489;BME280;46331;49.252;8.904;2023-04-08T03:28:13;100101.16;;;6.32;95.95
60489;BME280;46331;49.252;8.904;2023-04-08T03:28:54;100106.63;;;6.31;96.10
60489;BME280;46331;49.252;8.904;2023-04-08T03:29:34;100106.03;;;6.29;95.74
60489;BME280;46331;49.252;8.904;2023-04-08T03:30:15;100111.50;;;6.27;96.13
60489;BME280;46331;49.252;8.904;2023-04-08T03:30:55;100104.59;;;6.26;95.77
60489;BME280;46331;49.252;8.904;2023-04-08T03:31:36;100103.38;;;6.22;95.54
60489;BME280;46331;49.252;8.904;2023-04-08T03:32:16;100105.41;;;6.20;96.31
60489;BME280;46331;49.252;8.904;2023-04-08T03:32:57;100104.78;;;6.18;95.90
60489;BME280;46331;49.252;8.904;2023-04-08T03:33:37;100102.56;;;6.15;96.20
60489;BME280;46331;49.252;8.904;2023-04-08T03:34:18;100105.38;;;6.13;96.18
60489;BME280;46331;49.252;8.904;2023-04-08T03:34:58;100102.31;;;6.09;96.06
60489;BME280;46331;49.252;8.904;2023-04-08T03:35:39;100106.97;;;6.07;95.95
60489;BME280;46331;49.252;8.904;2023-04-08T03:36:20;100102.91;;;6.05;96.27
60489;BME280;46331;49.252;8.904;2023-04-08T03:37:00;100102.09;;;6.04;96.12
60489;BME280;46331;49.252;8.904;2023-04-08T03:37:41;100103.31;;;6.02;95.66
60489;BME280;46331;49.252;8.904;2023-04-08T03:38:21;100103.50;;;6.00;95.99
60489;BME280;46331;49.252;8.904;2023-04-08T03:39:02;100101.06;;;5.99;96.09
60489;BME280;46331;49.252;8.904;2023-04-08T03:39:43;100102.09;;;5.98;95.83
60489;BME280;46331;49.252;8.904;2023-04-08T03:40:23;100096.16;;;5.96;96.14
60489;BME280;46331;49.252;8.904;2023-04-08T03:41:04;100102.66;;;5.93;96.05
60489;BME280;46331;49.252;8.904;2023-04-08T03:41:45;100097.59;;;5.91;95.89
60489;BME280;46331;49.252;8.904;2023-04-08T03:42:25;100104.06;;;5.89;96.20
60489;BME280;46331;49.252;8.904;2023-04-08T03:43:06;100100.38;;;5.83;96.14
60489;BME280;46331;49.252;8.904;2023-04-08T03:43:48;100107.47;;;5.83;96.25
60489;BME280;46331;49.252;8.904;2023-04-08T03:44:28;100103.59;;;5.79;96.04
60489;BME280;46331;49.252;8.904;2023-04-08T03:45:09;100098.72;;;5.76;96.47
60489;BME280;46331;49.252;8.904;2023-04-08T03:45:49;100105.00;;;5.75;96.57
60489;BME280;46331;49.252;8.904;2023-04-08T03:46:30;100103.56;;;5.72;96.41
60489;BME280;46331;49.252;8.904;2023-04-08T03:47:10;100102.13;;;5.69;96.35
60489;BME280;46331;49.252;8.904;2023-04-08T03:47:51;100110.22;;;5.68;96.63
60489;BME280;46331;49.252;8.904;2023-04-08T03:48:31;100108.44;;;5.68;97.68
60489;BME280;46331;49.252;8.904;2023-04-08T03:49:12;100099.50;;;5.69;98.08